createdAt,value
2022-12-12T00:00:34.818Z,73.00
2022-12-12T00:03:20.589Z,72.13
2022-12-12T00:06:06.459Z,72.53
2022-12-12T00:08:52.601Z,73.22
2022-12-12T00:11:38.240Z,72.26
2022-12-12T00:14:23.779Z,72.43
2022-12-12T00:17:09.155Z,72.23
2022-12-12T00:19:54.744Z,71.29
2022-12-12T00:22:40.293Z,72.24
2022-12-12T00:25:26.030Z,71.62
2022-12-12T00:28:11.469Z,71.63
2022-12-12T00:30:57.562Z,72.05
2022-12-12T00:33:45.050Z,72.32
2022-12-12T00:36:32.015Z,71.82
2022-12-12T00:39:19.382Z,72.30
2022-12-12T00:42:05.219Z,72.25
2022-12-12T00:44:50.571Z,72.54
2022-12-12T00:47:36.041Z,72.26
2022-12-12T00:50:21.647Z,72.21
2022-12-12T00:53:08.446Z,72.03
2022-12-12T00:55:58.214Z,71.90
2022-12-12T00:58:44.074Z,72.01
2022-12-12T01:01:32.572Z,72.46
2022-12-12T01:04:18.303Z,72.22
2022-12-12T01:07:04.061Z,71.93
2022-12-12T01:09:49.788Z,71.60
2022-12-12T01:12:35.965Z,72.11
2022-12-12T01:15:21.629Z,71.69
2022-12-12T01:18:07.273Z,71.61
2022-12-12T01:20:53.619Z,72.89
2022-12-12T01:23:39.512Z,71.88
2022-12-12T01:26:26.092Z,72.83
2022-12-12T01:29:11.911Z,72.87
2022-12-12T01:31:57.679Z,73.49
2022-12-12T01:34:43.138Z,73.30
2022-12-12T01:37:28.501Z,73.20
2022-12-12T01:40:20.795Z,72.72
2022-12-12T01:43:15.806Z,73.87
2022-12-12T01:46:02.652Z,73.99
2022-12-12T01:48:56.234Z,73.69
2022-12-12T01:51:43.798Z,73.86
2022-12-12T01:54:38.866Z,73.13
2022-12-12T01:57:37.921Z,73.86
2022-12-12T02:00:23.948Z,74.14
2022-12-12T02:03:09.851Z,73.79
2022-12-12T02:06:02.594Z,74.35
2022-12-12T02:08:48.686Z,73.41
2022-12-12T02:11:46.151Z,74.09
2022-12-12T02:14:45.616Z,73.94
2022-12-12T02:17:55.213Z,74.56
2022-12-12T02:20:54.120Z,74.82
2022-12-12T02:24:04.543Z,75.08
2022-12-12T02:27:30.131Z,74.19
2022-12-12T02:31:03.324Z,74.69
2022-12-12T02:34:15.261Z,74.63
2022-12-12T02:37:30.517Z,74.86
2022-12-12T02:40:40.476Z,75.04
2022-12-12T02:43:52.679Z,75.67
2022-12-12T02:46:54.133Z,75.90
2022-12-12T02:49:57.040Z,75.22
2022-12-12T02:52:43.906Z,75.88
2022-12-12T02:55:35.016Z,76.09
2022-12-12T02:58:22.382Z,75.63
2022-12-12T03:01:30.181Z,75.69
2022-12-12T03:04:51.781Z,76.34
2022-12-12T03:08:11.225Z,77.08
2022-12-12T03:11:08.700Z,76.71
2022-12-12T03:14:12.101Z,77.42
2022-12-12T03:17:35.664Z,76.77
2022-12-12T03:20:37.555Z,76.96
2022-12-12T03:23:30.565Z,77.32
2022-12-12T03:26:35.735Z,77.64
2022-12-12T03:29:32.308Z,77.36
2022-12-12T03:32:30.807Z,77.44
2022-12-12T03:36:14.586Z,77.33
2022-12-12T03:39:03.466Z,77.79
2022-12-12T03:42:04.098Z,77.85
2022-12-12T03:45:03.153Z,77.99
2022-12-12T03:48:08.352Z,78.18
2022-12-12T03:51:09.935Z,78.23
2022-12-12T03:54:09.472Z,79.17
2022-12-12T03:57:25.667Z,78.64
2022-12-12T04:00:15.500Z,78.72
2022-12-12T04:03:23.768Z,78.16
2022-12-12T04:06:28.292Z,78.22
2022-12-12T04:09:37.304Z,78.51
2022-12-12T04:12:57.421Z,78.03
2022-12-12T04:15:51.965Z,78.35
2022-12-12T04:19:00.997Z,78.45
2022-12-12T04:22:16.735Z,78.03
2022-12-12T04:25:18.679Z,78.80
2022-12-12T04:28:08.168Z,78.29
2022-12-12T04:30:54.576Z,78.95
2022-12-12T04:33:50.388Z,78.91
2022-12-12T04:36:36.803Z,79.01
2022-12-12T04:39:24.499Z,79.36
2022-12-12T04:42:14.735Z,78.57
2022-12-12T04:45:16.473Z,78.87
2022-12-12T04:48:06.293Z,79.48
2022-12-12T04:50:54.559Z,78.96
2022-12-12T04:53:50.790Z,78.89
2022-12-12T04:56:39.665Z,79.41
2022-12-12T04:59:25.523Z,78.97
2022-12-12T05:02:33.538Z,78.43
2022-12-12T05:05:48.821Z,78.77
2022-12-12T05:08:48.816Z,78.95
2022-12-12T05:11:35.645Z,78.63
2022-12-12T05:14:21.303Z,78.70
2022-12-12T05:17:15.703Z,78.39
2022-12-12T05:20:01.278Z,77.95
2022-12-12T05:22:46.960Z,78.27
2022-12-12T05:25:33.815Z,78.41
2022-12-12T05:28:19.562Z,77.51
2022-12-12T05:31:05.604Z,78.41
2022-12-12T05:33:51.440Z,78.11
2022-12-12T05:36:37.406Z,78.00
2022-12-12T05:39:23.940Z,78.17
2022-12-12T05:42:09.744Z,78.13
2022-12-12T05:44:55.292Z,77.95
2022-12-12T05:47:40.884Z,78.38
2022-12-12T05:50:26.336Z,77.48
2022-12-12T05:53:12.516Z,77.43
2022-12-12T05:55:58.222Z,77.54
2022-12-12T05:58:44.133Z,77.67
2022-12-12T06:01:29.746Z,78.07
2022-12-12T06:04:16.057Z,78.24
2022-12-12T06:07:01.852Z,78.11
2022-12-12T06:09:47.806Z,77.91
2022-12-12T06:12:33.439Z,78.60
2022-12-12T06:15:19.008Z,78.75
2022-12-12T06:18:05.453Z,78.49
2022-12-12T06:20:50.974Z,79.15
2022-12-12T06:23:41.941Z,79.47
2022-12-12T06:26:27.628Z,79.07
2022-12-12T06:29:14.832Z,79.70
2022-12-12T06:32:00.515Z,78.90
2022-12-12T06:34:46.430Z,78.65
2022-12-12T06:37:32.531Z,79.57
2022-12-12T06:40:18.299Z,79.77
2022-12-12T06:43:03.911Z,79.97
2022-12-12T06:45:49.725Z,79.73
2022-12-12T06:48:36.649Z,79.96
2022-12-12T06:51:29.570Z,78.86
2022-12-12T06:54:18.507Z,78.65
2022-12-12T06:57:04.400Z,78.98
2022-12-12T06:59:51.422Z,78.91
2022-12-12T07:02:37.477Z,78.93
2022-12-12T07:05:24.115Z,78.81
2022-12-12T07:08:09.680Z,79.24
2022-12-12T07:10:56.995Z,78.36
2022-12-12T07:13:43.567Z,78.58
2022-12-12T07:16:29.164Z,78.03
2022-12-12T07:19:14.643Z,77.99
2022-12-12T07:22:05.711Z,77.94
2022-12-12T07:24:55.116Z,78.07
2022-12-12T07:27:40.394Z,77.60
2022-12-12T07:30:25.873Z,77.84
2022-12-12T07:33:12.663Z,77.46
2022-12-12T07:36:00.049Z,77.83
2022-12-12T07:38:45.840Z,77.39
2022-12-12T07:41:31.351Z,76.79
2022-12-12T07:44:16.963Z,77.39
2022-12-12T07:47:03.223Z,76.94
2022-12-12T07:49:48.897Z,76.92
2022-12-12T07:52:34.570Z,76.41
2022-12-12T07:55:19.824Z,76.79
2022-12-12T07:58:08.906Z,77.21
2022-12-12T08:01:00.921Z,76.63
2022-12-12T08:03:48.295Z,76.50
2022-12-12T08:06:35.474Z,76.61
2022-12-12T08:09:20.805Z,75.12
2022-12-12T08:12:06.807Z,73.96
2022-12-12T08:14:52.553Z,73.47
2022-12-12T08:17:38.306Z,68.89
2022-12-12T08:20:23.973Z,66.22
2022-12-12T08:23:09.638Z,65.21
2022-12-12T08:25:55.281Z,62.71
2022-12-12T08:28:41.849Z,62.78
2022-12-12T08:31:28.181Z,63.00
2022-12-12T08:34:14.509Z,64.65
2022-12-12T08:37:00.105Z,66.04
2022-12-12T08:39:45.477Z,66.64
2022-12-12T08:42:30.996Z,65.19
2022-12-12T08:45:16.962Z,64.67
2022-12-12T08:48:02.417Z,63.08
2022-12-12T08:50:47.775Z,59.17
2022-12-12T08:53:33.356Z,56.45
2022-12-12T08:56:20.124Z,54.87
2022-12-12T08:59:05.905Z,53.78
2022-12-12T09:01:51.430Z,52.87
2022-12-12T09:04:37.140Z,53.15
2022-12-12T09:07:22.616Z,53.25
2022-12-12T09:10:09.178Z,54.26
2022-12-12T09:12:55.626Z,56.46
2022-12-12T09:15:44.518Z,58.28
2022-12-12T09:18:30.105Z,60.46
2022-12-12T09:21:15.528Z,61.13
2022-12-12T09:24:01.984Z,62.33
2022-12-12T09:26:47.467Z,62.90
2022-12-12T09:29:32.789Z,64.51
2022-12-12T09:32:22.790Z,65.14
2022-12-12T09:35:11.852Z,64.80
2022-12-12T09:37:57.903Z,65.11
2022-12-12T09:40:54.252Z,65.37
2022-12-12T09:43:48.488Z,64.98
2022-12-12T09:46:47.165Z,65.14
2022-12-12T09:49:54.196Z,65.10
2022-12-12T09:52:40.754Z,66.78
2022-12-12T09:55:43.174Z,66.04
2022-12-12T09:59:06.227Z,65.52
2022-12-12T10:02:34.811Z,66.38
2022-12-12T10:06:13.376Z,65.97
2022-12-12T10:10:12.748Z,64.86
2022-12-12T10:13:01.358Z,64.36
2022-12-12T10:15:59.779Z,64.33
2022-12-12T10:18:53.112Z,65.03
2022-12-12T10:21:40.986Z,63.74
2022-12-12T10:25:10.875Z,62.47
2022-12-12T10:28:21.017Z,63.06
2022-12-12T10:31:30.897Z,62.15
2022-12-12T10:35:00.215Z,62.49
2022-12-12T10:38:06.200Z,62.51
2022-12-12T10:41:30.435Z,63.54
2022-12-12T10:44:30.081Z,63.02
2022-12-12T10:47:15.808Z,63.66
2022-12-12T10:50:17.164Z,63.18
2022-12-12T10:53:06.550Z,64.12
2022-12-12T10:56:10.670Z,64.90
2022-12-12T10:58:59.905Z,64.21
2022-12-12T11:02:08.969Z,64.36
2022-12-12T11:05:16.923Z,62.72
2022-12-12T11:08:22.859Z,62.70
2022-12-12T11:11:25.161Z,62.07
2022-12-12T11:14:34.905Z,62.75
2022-12-12T11:17:28.008Z,62.96
2022-12-12T11:20:18.601Z,62.97
2022-12-12T11:23:04.271Z,63.13
2022-12-12T11:26:16.679Z,62.24
2022-12-12T11:29:08.132Z,63.59
2022-12-12T11:31:55.258Z,63.95
2022-12-12T11:34:51.377Z,63.65
2022-12-12T11:37:48.401Z,63.37
2022-12-12T11:40:38.606Z,63.35
2022-12-12T11:43:31.076Z,63.89
2022-12-12T11:46:24.887Z,63.03
2022-12-12T11:49:20.355Z,64.74
2022-12-12T11:52:32.627Z,64.68
2022-12-12T11:55:37.106Z,64.71
2022-12-12T11:58:45.402Z,64.76
2022-12-12T12:02:02.848Z,64.54
2022-12-12T12:05:15.739Z,64.89
2022-12-12T12:08:45.052Z,64.59
2022-12-12T12:12:29.465Z,64.65
2022-12-12T12:15:55.448Z,64.36
2022-12-12T12:19:39.791Z,65.73
2022-12-12T12:22:46.596Z,65.47
2022-12-12T12:25:53.163Z,65.41
2022-12-12T12:29:13.144Z,66.14
2022-12-12T12:32:12.751Z,66.25
2022-12-12T12:35:31.198Z,66.48
2022-12-12T12:38:31.724Z,66.61
2022-12-12T12:41:49.044Z,66.47
2022-12-12T12:44:52.356Z,67.00
2022-12-12T12:50:40.232Z,67.94
2022-12-12T12:54:02.900Z,67.60
2022-12-12T12:57:30.256Z,67.71
2022-12-12T13:00:36.825Z,68.22
2022-12-12T13:03:27.298Z,68.26
2022-12-12T13:06:46.525Z,67.85
2022-12-12T13:09:35.242Z,68.78
2022-12-12T13:16:04.699Z,69.49
2022-12-12T13:19:31.390Z,69.22
2022-12-12T13:22:19.461Z,69.04
2022-12-12T13:25:27.571Z,69.68
2022-12-12T13:28:49.297Z,69.29
2022-12-12T13:32:01.816Z,68.87
2022-12-12T13:34:56.747Z,69.34
2022-12-12T13:37:50.262Z,69.42
2022-12-12T13:40:42.001Z,69.32
2022-12-12T13:43:33.470Z,70.35
2022-12-12T13:46:22.074Z,69.69
2022-12-12T13:49:36.898Z,69.86
2022-12-12T13:52:42.800Z,69.56
2022-12-12T13:55:28.538Z,70.44
2022-12-12T13:58:34.264Z,70.48
2022-12-12T14:01:40.379Z,70.88
2022-12-12T14:04:34.532Z,70.55
2022-12-12T14:07:23.882Z,70.91
2022-12-12T14:10:27.281Z,71.67
2022-12-12T14:13:21.786Z,71.14
2022-12-12T14:16:21.030Z,72.13
2022-12-12T14:19:20.891Z,72.56
2022-12-12T14:22:06.923Z,73.54
2022-12-12T14:25:12.534Z,73.39
2022-12-12T14:28:25.272Z,73.52
2022-12-12T14:31:17.666Z,74.08
2022-12-12T14:34:23.466Z,73.37
2022-12-12T14:37:51.923Z,73.95
2022-12-12T14:40:45.622Z,74.43
2022-12-12T14:43:37.107Z,75.37
2022-12-12T14:46:22.504Z,74.93
2022-12-12T14:49:16.565Z,74.90
2022-12-12T14:52:02.485Z,76.07
2022-12-12T14:54:50.957Z,75.77
2022-12-12T14:57:36.679Z,76.16
2022-12-12T15:00:22.351Z,76.17
2022-12-12T15:03:08.057Z,76.89
2022-12-12T15:06:35.259Z,77.32
2022-12-12T15:09:40.631Z,76.60
2022-12-12T15:15:38.241Z,76.75
2022-12-12T15:18:23.649Z,76.84
2022-12-12T15:21:08.968Z,77.21
2022-12-12T15:23:54.657Z,76.87
2022-12-12T15:26:44.384Z,77.07
2022-12-12T15:29:32.967Z,77.07
2022-12-12T15:32:23.024Z,77.69
2022-12-12T15:35:08.666Z,77.38
2022-12-12T15:38:05.769Z,78.05
2022-12-12T15:40:57.905Z,77.84
2022-12-12T15:43:44.500Z,77.63
2022-12-12T15:46:31.543Z,78.26
2022-12-12T15:50:06.463Z,78.49
2022-12-12T15:53:23.489Z,78.62
2022-12-12T15:56:12.144Z,77.97
2022-12-12T15:59:25.828Z,78.59
2022-12-12T16:02:32.019Z,78.12
2022-12-12T16:05:19.414Z,77.89
2022-12-12T16:08:32.056Z,78.14
2022-12-12T16:11:47.150Z,78.60
2022-12-12T16:14:41.380Z,79.25
2022-12-12T16:17:29.183Z,79.58
2022-12-12T16:20:15.001Z,80.06
2022-12-12T16:23:29.978Z,79.76
2022-12-12T16:26:15.414Z,80.59
2022-12-12T16:29:01.035Z,80.69
2022-12-12T16:31:47.940Z,80.77
2022-12-12T16:34:33.570Z,80.20
2022-12-12T16:37:19.321Z,79.85
2022-12-12T16:40:05.904Z,79.06
2022-12-12T16:43:10.775Z,78.93
2022-12-12T16:45:57.798Z,78.86
2022-12-12T16:48:43.820Z,78.24
2022-12-12T16:51:35.108Z,77.63
2022-12-12T16:54:05.125Z,77.48
2022-12-12T16:56:32.380Z,77.81
2022-12-12T16:59:02.005Z,77.47
2022-12-12T17:01:34.624Z,77.66
2022-12-12T17:04:22.963Z,77.67
2022-12-12T17:06:51.206Z,77.76
2022-12-12T17:09:18.458Z,77.48
2022-12-12T17:11:45.895Z,78.17
2022-12-12T17:14:33.092Z,77.79
2022-12-12T17:17:05.579Z,77.88
2022-12-12T17:19:33.168Z,77.96
2022-12-12T17:22:02.906Z,78.19
2022-12-12T17:24:32.784Z,77.89
2022-12-12T17:26:59.983Z,78.50
2022-12-12T17:29:29.408Z,78.70
2022-12-12T17:31:57.098Z,79.56
2022-12-12T17:34:24.259Z,79.85
2022-12-12T17:36:51.627Z,79.67
2022-12-12T17:39:19.074Z,81.20
2022-12-12T17:41:48.644Z,81.63
2022-12-12T17:44:19.099Z,82.13
2022-12-12T17:46:46.355Z,83.41
2022-12-12T17:49:16.391Z,83.57
2022-12-12T17:51:43.509Z,83.38
2022-12-12T17:54:10.644Z,83.42
2022-12-12T17:56:38.789Z,84.10
2022-12-12T17:59:24.927Z,84.33
2022-12-12T18:02:11.904Z,83.95
2022-12-12T18:04:59.033Z,84.53
2022-12-12T18:07:44.717Z,84.58
2022-12-12T18:10:30.413Z,84.70
2022-12-12T18:13:16.027Z,85.42
2022-12-12T18:16:01.864Z,85.44
2022-12-12T18:18:49.518Z,84.87
2022-12-12T18:21:59.931Z,84.58
2022-12-12T18:24:42.241Z,84.93
2022-12-12T18:27:27.787Z,85.32
2022-12-12T18:30:14.246Z,85.28
2022-12-12T18:33:03.095Z,85.32
2022-12-12T18:35:49.097Z,85.06
2022-12-12T18:38:36.755Z,85.42
2022-12-12T18:41:22.527Z,85.40
2022-12-12T18:44:13.797Z,85.01
2022-12-12T18:46:59.335Z,84.86
2022-12-12T18:49:45.049Z,85.54
2022-12-12T18:52:33.740Z,84.91
2022-12-12T18:55:19.540Z,85.30
2022-12-12T18:58:05.478Z,84.82
2022-12-12T19:00:51.278Z,85.24
2022-12-12T19:03:39.654Z,84.77
2022-12-12T19:06:33.775Z,84.35
2022-12-12T19:09:20.634Z,84.53
2022-12-12T19:12:06.951Z,83.67
2022-12-12T19:15:15.621Z,83.73
2022-12-12T19:17:58.493Z,83.55
2022-12-12T19:20:44.134Z,83.49
2022-12-12T19:23:29.403Z,84.05
2022-12-12T19:26:28.246Z,83.88
2022-12-12T19:29:18.181Z,83.46
2022-12-12T19:32:04.448Z,83.73
2022-12-12T19:34:50.162Z,83.22
2022-12-12T19:37:37.360Z,83.51
2022-12-12T19:40:24.979Z,83.08
2022-12-12T19:43:10.701Z,83.11
2022-12-12T19:46:09.687Z,82.64
2022-12-12T19:48:57.555Z,83.12
2022-12-12T19:51:45.481Z,83.35
2022-12-12T19:54:31.156Z,83.79
2022-12-12T19:57:16.867Z,82.60
2022-12-12T20:00:03.505Z,83.05
2022-12-12T20:02:48.978Z,82.26
2022-12-12T20:05:35.145Z,82.30
2022-12-12T20:08:20.916Z,81.51
2022-12-12T20:11:20.823Z,81.56
2022-12-12T20:14:06.492Z,81.58
2022-12-12T20:16:53.912Z,81.44
2022-12-12T20:19:39.350Z,81.22
2022-12-12T20:22:25.414Z,81.54
2022-12-12T20:25:11.911Z,82.00
2022-12-12T20:30:43.256Z,82.24
2022-12-12T20:33:29.246Z,82.38
2022-12-12T20:36:18.094Z,83.43
2022-12-12T20:39:07.372Z,83.45
2022-12-12T20:41:53.870Z,83.02
2022-12-12T20:44:39.914Z,82.46
2022-12-12T20:47:25.370Z,82.46
2022-12-12T20:50:10.948Z,81.78
2022-12-12T20:52:56.354Z,81.06
2022-12-12T20:55:41.748Z,80.52
2022-12-12T20:58:27.176Z,80.29
2022-12-12T21:01:20.171Z,81.17
2022-12-12T21:04:10.623Z,81.13
2022-12-12T21:06:56.205Z,81.65
2022-12-12T21:09:41.662Z,81.94
2022-12-12T21:12:27.118Z,81.79
2022-12-12T21:15:12.644Z,82.45
2022-12-12T21:17:58.169Z,82.87
2022-12-12T21:20:46.780Z,82.43
2022-12-12T21:23:33.304Z,82.87
2022-12-12T21:26:28.406Z,82.81
2022-12-12T21:29:16.212Z,84.07
2022-12-12T21:32:01.898Z,83.33
2022-12-12T21:34:48.000Z,82.16
2022-12-12T21:37:40.033Z,81.87
2022-12-12T21:40:26.528Z,81.31
2022-12-12T21:43:15.341Z,80.44
2022-12-12T21:46:07.296Z,80.64
2022-12-12T21:49:17.231Z,80.26
2022-12-12T21:52:10.121Z,80.87
2022-12-12T21:54:55.803Z,81.50
2022-12-12T21:57:41.487Z,81.68
2022-12-12T22:00:27.478Z,82.37
2022-12-12T22:03:13.113Z,82.81
2022-12-12T22:05:59.450Z,82.62
2022-12-12T22:08:46.671Z,82.65
2022-12-12T22:11:40.156Z,82.59
2022-12-12T22:14:35.360Z,82.63
2022-12-12T22:17:21.262Z,83.25
2022-12-12T22:20:08.218Z,83.67
2022-12-12T22:22:54.287Z,83.26
2022-12-12T22:25:40.393Z,83.69
2022-12-12T22:28:28.525Z,83.84
2022-12-12T22:31:14.192Z,84.54
2022-12-12T22:34:04.942Z,84.83
2022-12-12T22:36:51.828Z,85.00
2022-12-12T22:39:37.436Z,85.43
2022-12-12T22:42:23.120Z,84.96
2022-12-12T22:45:09.543Z,84.63
2022-12-12T22:47:55.431Z,84.59
2022-12-12T22:50:43.682Z,84.03
2022-12-12T22:53:29.406Z,83.87
2022-12-12T22:56:15.360Z,84.04
2022-12-12T22:59:05.262Z,83.32
2022-12-12T23:01:51.047Z,83.97
2022-12-12T23:04:36.655Z,83.83
2022-12-12T23:07:22.630Z,83.77
2022-12-12T23:10:09.188Z,82.83
2022-12-12T23:12:55.114Z,83.53
2022-12-12T23:15:42.472Z,82.94
2022-12-12T23:18:28.274Z,82.98
2022-12-12T23:21:18.842Z,82.45
2022-12-12T23:24:05.980Z,82.29
2022-12-12T23:26:52.232Z,81.77
2022-12-12T23:29:38.299Z,80.77
2022-12-12T23:32:24.396Z,81.04
2022-12-12T23:35:10.175Z,80.56
2022-12-12T23:37:55.743Z,80.33
2022-12-12T23:40:41.808Z,80.53
2022-12-12T23:43:28.458Z,80.20
2022-12-12T23:46:28.466Z,79.79
2022-12-12T23:49:17.291Z,80.15
2022-12-12T23:52:02.904Z,80.28
2022-12-12T23:54:48.402Z,79.91
2022-12-12T23:57:34.267Z,80.14
